createdAt,value
2019-05-07T00:00:19.310Z,1007.35
2019-05-07T00:01:19.303Z,1007.35
2019-05-07T00:02:19.354Z,1007.35
2019-05-07T00:03:19.273Z,1007.36
2019-05-07T00:04:19.263Z,1007.33
2019-05-07T00:05:19.253Z,1007.33
2019-05-07T00:06:20.372Z,1007.31
2019-05-07T00:07:19.232Z,1007.25
2019-05-07T00:08:19.262Z,1007.30
2019-05-07T00:09:19.214Z,1007.28
2019-05-07T00:10:19.212Z,1007.27
2019-05-07T00:11:19.192Z,1007.28
2019-05-07T00:12:19.182Z,1007.30
2019-05-07T00:13:19.460Z,1007.25
2019-05-07T00:14:19.202Z,1007.31
2019-05-07T00:15:19.151Z,1007.28
2019-05-07T00:16:19.143Z,1007.26
2019-05-07T00:17:19.134Z,1007.28
2019-05-07T00:18:19.901Z,1007.26
2019-05-07T00:19:19.111Z,1007.24
2019-05-07T00:20:19.431Z,1007.26
2019-05-07T00:21:19.098Z,1007.24
2019-05-07T00:22:19.082Z,1007.20
2019-05-07T00:23:19.070Z,1007.20
2019-05-07T00:24:19.649Z,1007.19
2019-05-07T00:25:19.050Z,1007.19
2019-05-07T00:26:19.077Z,1007.19
2019-05-07T00:27:19.329Z,1007.19
2019-05-07T00:28:19.017Z,1007.18
2019-05-07T00:29:19.010Z,1007.18
2019-05-07T00:30:18.998Z,1007.18
2019-05-07T00:31:18.979Z,1007.14
2019-05-07T00:32:19.029Z,1007.13
2019-05-07T00:33:18.971Z,1007.12
2019-05-07T00:34:19.239Z,1007.15
2019-05-07T00:35:18.939Z,1007.17
2019-05-07T00:36:19.441Z,1007.16
2019-05-07T00:37:18.919Z,1007.16
2019-05-07T00:38:19.438Z,1007.13
2019-05-07T00:39:18.899Z,1007.12
2019-05-07T00:40:18.891Z,1007.15
2019-05-07T00:41:19.187Z,1007.13
2019-05-07T00:42:18.883Z,1007.15
2019-05-07T00:43:18.879Z,1007.16
2019-05-07T00:44:18.888Z,1007.13
2019-05-07T00:45:21.614Z,1007.17
2019-05-07T00:46:18.838Z,1007.14
2019-05-07T00:47:18.817Z,1007.19
2019-05-07T00:48:19.097Z,1007.15
2019-05-07T00:49:18.801Z,1007.15
2019-05-07T00:50:18.826Z,1007.14
2019-05-07T00:51:18.798Z,1007.15
2019-05-07T00:52:18.767Z,1007.10
2019-05-07T00:53:18.756Z,1007.14
2019-05-07T00:54:18.745Z,1007.11
2019-05-07T00:55:20.056Z,1007.12
2019-05-07T00:56:18.767Z,1007.14
2019-05-07T00:57:18.716Z,1007.16
2019-05-07T00:58:18.707Z,1007.15
2019-05-07T00:59:18.697Z,1007.12
2019-05-07T01:00:18.685Z,1007.11
2019-05-07T01:01:18.675Z,1007.08
2019-05-07T01:02:19.676Z,1007.07
2019-05-07T01:03:18.665Z,1007.11
2019-05-07T01:04:18.644Z,1007.08
2019-05-07T01:05:18.666Z,1007.07
2019-05-07T01:06:18.623Z,1007.06
2019-05-07T01:07:18.605Z,1007.08
2019-05-07T01:08:18.645Z,1007.11
2019-05-07T01:09:18.875Z,1007.08
2019-05-07T01:10:18.584Z,1007.05
2019-05-07T01:11:18.565Z,1007.09
2019-05-07T01:12:18.554Z,1007.09
2019-05-07T01:13:18.563Z,1007.08
2019-05-07T01:14:19.283Z,1007.10
2019-05-07T01:15:28.783Z,1007.12
2019-05-07T01:16:19.535Z,1007.11
2019-05-07T01:17:18.504Z,1007.07
2019-05-07T01:18:18.503Z,1007.08
2019-05-07T01:19:18.483Z,1007.10
2019-05-07T01:20:18.504Z,1007.11
2019-05-07T01:21:19.434Z,1007.10
2019-05-07T01:22:18.845Z,1007.13
2019-05-07T01:23:18.451Z,1007.10
2019-05-07T01:24:18.433Z,1007.14
2019-05-07T01:25:18.433Z,1007.10
2019-05-07T01:26:18.450Z,1007.13
2019-05-07T01:27:18.403Z,1007.15
2019-05-07T01:28:18.383Z,1007.17
2019-05-07T01:29:18.382Z,1007.18
2019-05-07T01:30:18.376Z,1007.18
2019-05-07T01:31:18.362Z,1007.22
2019-05-07T01:32:18.412Z,1007.17
2019-05-07T01:33:19.132Z,1007.15
2019-05-07T01:34:18.631Z,1007.19
2019-05-07T01:35:18.333Z,1007.21
2019-05-07T01:36:18.321Z,1007.18
2019-05-07T01:37:18.291Z,1007.19
2019-05-07T01:38:18.328Z,1007.19
2019-05-07T01:39:18.279Z,1007.15
2019-05-07T01:40:18.272Z,1007.18
2019-05-07T01:41:18.251Z,1007.20
2019-05-07T01:42:18.260Z,1007.19
2019-05-07T01:43:18.231Z,1007.20
2019-05-07T01:44:18.282Z,1007.27
2019-05-07T01:45:18.217Z,1007.28
2019-05-07T01:46:18.490Z,1007.28
2019-05-07T01:47:18.190Z,1007.26
2019-05-07T01:48:18.190Z,1007.26
2019-05-07T01:49:18.170Z,1007.26
2019-05-07T01:50:18.209Z,1007.25
2019-05-07T01:51:18.150Z,1007.29
2019-05-07T01:52:18.149Z,1007.25
2019-05-07T01:53:18.428Z,1007.25
2019-05-07T01:54:18.119Z,1007.24
2019-05-07T01:55:18.108Z,1007.26
2019-05-07T01:56:18.143Z,1007.24
2019-05-07T01:57:18.088Z,1007.26
2019-05-07T01:58:18.569Z,1007.30
2019-05-07T01:59:18.069Z,1007.33
2019-05-07T02:01:42.890Z,1007.27
2019-05-07T02:02:42.462Z,1007.27
2019-05-07T02:03:42.016Z,1007.27
2019-05-07T02:04:42.611Z,1007.31
2019-05-07T02:05:42.303Z,1007.32
2019-05-07T02:06:40.368Z,1007.32
2019-05-07T02:07:42.783Z,1007.26
2019-05-07T02:08:42.349Z,1007.30
2019-05-07T02:09:42.321Z,1007.31
2019-05-07T02:10:40.318Z,1007.32
2019-05-07T02:11:42.292Z,1007.35
2019-05-07T02:12:42.411Z,1007.31
2019-05-07T02:13:41.988Z,1007.33
2019-05-07T02:14:42.139Z,1007.32
2019-05-07T02:15:40.317Z,1007.30
2019-05-07T02:16:41.868Z,1007.31
2019-05-07T02:17:40.282Z,1007.30
2019-05-07T02:18:42.251Z,1007.29
2019-05-07T02:19:42.531Z,1007.31
2019-05-07T02:20:42.469Z,1007.32
2019-05-07T02:21:42.180Z,1007.30
2019-05-07T02:22:40.221Z,1007.31
2019-05-07T02:23:42.408Z,1007.30
2019-05-07T02:24:40.174Z,1007.34
2019-05-07T02:25:42.039Z,1007.34
2019-05-07T02:26:42.898Z,1007.32
2019-05-07T02:27:42.114Z,1007.27
2019-05-07T02:28:42.483Z,1007.30
2019-05-07T02:29:40.106Z,1007.31
2019-05-07T02:30:40.121Z,1007.35
2019-05-07T02:31:40.136Z,1007.30
2019-05-07T02:32:42.928Z,1007.33
2019-05-07T02:33:43.464Z,1007.34
2019-05-07T02:34:43.717Z,1007.38
2019-05-07T02:35:43.574Z,1007.33
2019-05-07T02:36:42.966Z,1007.37
2019-05-07T02:37:48.355Z,1007.39
2019-05-07T02:38:43.901Z,1007.37
2019-05-07T02:39:44.001Z,1007.39
2019-05-07T02:40:43.122Z,1007.38
2019-05-07T02:41:43.762Z,1007.40
2019-05-07T02:42:40.035Z,1007.40
2019-05-07T02:43:42.845Z,1007.38
2019-05-07T02:44:39.963Z,1007.42
2019-05-07T02:45:39.967Z,1007.36
2019-05-07T02:46:43.126Z,1007.36
2019-05-07T02:47:43.511Z,1007.41
2019-05-07T02:48:42.623Z,1007.37
2019-05-07T02:49:39.936Z,1007.41
2019-05-07T02:50:39.900Z,1007.39
2019-05-07T02:51:43.224Z,1007.38
2019-05-07T02:52:39.901Z,1007.42
2019-05-07T02:53:42.824Z,1007.44
2019-05-07T02:54:43.629Z,1007.42
2019-05-07T02:55:43.393Z,1007.40
2019-05-07T02:56:43.017Z,1007.41
2019-05-07T02:57:43.219Z,1007.44
2019-05-07T02:58:39.834Z,1007.39
2019-05-07T02:59:39.819Z,1007.39
2019-05-07T03:00:43.117Z,1007.38
2019-05-07T03:01:43.017Z,1007.37
2019-05-07T03:02:39.775Z,1007.38
2019-05-07T03:03:39.767Z,1007.33
2019-05-07T03:04:39.757Z,1007.34
2019-05-07T03:05:42.840Z,1007.33
2019-05-07T03:06:39.744Z,1007.32
2019-05-07T03:07:42.556Z,1007.31
2019-05-07T03:08:39.765Z,1007.28
2019-05-07T03:09:42.798Z,1007.27
2019-05-07T03:10:39.673Z,1007.29
2019-05-07T03:11:39.678Z,1007.31
2019-05-07T03:12:42.750Z,1007.29
2019-05-07T03:13:39.774Z,1007.33
2019-05-07T03:15:04.070Z,1007.34
2019-05-07T03:15:39.641Z,1007.29
2019-05-07T03:16:47.552Z,1007.26
2019-05-07T03:17:42.926Z,1007.28
2019-05-07T03:18:43.497Z,1007.27
2019-05-07T03:19:42.746Z,1007.28
2019-05-07T03:20:39.595Z,1007.30
2019-05-07T03:21:39.583Z,1007.27
2019-05-07T03:22:42.619Z,1007.28
2019-05-07T03:23:42.669Z,1007.27
2019-05-07T03:24:39.530Z,1007.30
2019-05-07T03:25:42.974Z,1007.32
2019-05-07T03:26:39.543Z,1007.24
2019-05-07T03:27:39.509Z,1007.28
2019-05-07T03:28:42.767Z,1007.29
2019-05-07T03:29:39.511Z,1007.30
2019-05-07T03:30:39.486Z,1007.34
2019-05-07T03:31:39.573Z,1007.33
2019-05-07T03:32:40.644Z,1007.33
2019-05-07T03:33:39.455Z,1007.31
2019-05-07T03:34:39.432Z,1007.30
2019-05-07T03:35:39.459Z,1007.34
2019-05-07T03:36:39.459Z,1007.35
2019-05-07T03:37:39.447Z,1007.35
2019-05-07T03:38:39.415Z,1007.34
2019-05-07T03:39:39.445Z,1007.35
2019-05-07T03:40:39.382Z,1007.33
2019-05-07T03:41:39.400Z,1007.39
2019-05-07T03:42:39.354Z,1007.37
2019-05-07T03:43:39.398Z,1007.41
2019-05-07T03:44:39.348Z,1007.35
2019-05-07T03:45:42.968Z,1007.40
2019-05-07T03:46:53.305Z,1007.40
2019-05-07T03:47:43.553Z,1007.39
2019-05-07T03:48:39.295Z,1007.41
2019-05-07T03:49:39.343Z,1007.40
2019-05-07T03:50:39.256Z,1007.37
2019-05-07T03:51:39.256Z,1007.44
2019-05-07T03:52:39.243Z,1007.42
2019-05-07T03:53:39.268Z,1007.43
2019-05-07T03:54:42.856Z,1007.39
2019-05-07T03:55:39.236Z,1007.41
2019-05-07T03:56:39.206Z,1007.45
2019-05-07T03:57:39.191Z,1007.42
2019-05-07T03:58:39.190Z,1007.46
2019-05-07T03:59:39.167Z,1007.42
2019-05-07T04:00:39.169Z,1007.48
2019-05-07T04:01:39.201Z,1007.46
2019-05-07T04:02:39.545Z,1007.47
2019-05-07T04:03:39.151Z,1007.48
2019-05-07T04:04:39.141Z,1007.49
2019-05-07T04:05:39.118Z,1007.45
2019-05-07T04:06:39.090Z,1007.49
2019-05-07T04:07:39.131Z,1007.51
2019-05-07T04:08:39.095Z,1007.48
2019-05-07T04:09:39.069Z,1007.49
2019-05-07T04:10:39.610Z,1007.49
2019-05-07T04:11:39.061Z,1007.48
2019-05-07T04:12:39.116Z,1007.47
2019-05-07T04:13:39.067Z,1007.46
2019-05-07T04:14:39.014Z,1007.46
2019-05-07T04:15:39.016Z,1007.46
2019-05-07T04:16:39.337Z,1007.47
2019-05-07T04:17:39.003Z,1007.48
2019-05-07T04:18:38.983Z,1007.47
2019-05-07T04:19:39.226Z,1007.49
2019-05-07T04:20:38.958Z,1007.46
2019-05-07T04:21:38.962Z,1007.43
2019-05-07T04:22:38.947Z,1007.44
2019-05-07T04:23:39.019Z,1007.42
2019-05-07T04:24:38.904Z,1007.47
2019-05-07T04:25:39.626Z,1007.45
2019-05-07T04:26:38.893Z,1007.48
2019-05-07T04:27:38.912Z,1007.50
2019-05-07T04:28:39.161Z,1007.50
2019-05-07T04:29:38.919Z,1007.51
2019-05-07T04:30:38.853Z,1007.51
2019-05-07T04:31:38.901Z,1007.52
2019-05-07T04:32:38.835Z,1007.51
2019-05-07T04:33:38.833Z,1007.51
2019-05-07T04:34:38.803Z,1007.52
2019-05-07T04:35:38.826Z,1007.51
2019-05-07T04:36:38.803Z,1007.52
2019-05-07T04:37:38.823Z,1007.56
2019-05-07T04:38:38.764Z,1007.54
2019-05-07T04:39:38.780Z,1007.52
2019-05-07T04:40:39.118Z,1007.52
2019-05-07T04:41:38.825Z,1007.52
2019-05-07T04:42:38.748Z,1007.54
2019-05-07T04:43:39.701Z,1007.55
2019-05-07T04:44:38.781Z,1007.57
2019-05-07T04:45:38.784Z,1007.55
2019-05-07T04:46:38.678Z,1007.56
2019-05-07T04:47:44.255Z,1007.54
2019-05-07T04:48:39.701Z,1007.56
2019-05-07T04:49:38.652Z,1007.55
2019-05-07T04:50:43.611Z,1007.61
2019-05-07T04:51:39.628Z,1007.60
2019-05-07T04:52:38.625Z,1007.61
2019-05-07T04:53:38.591Z,1007.59
2019-05-07T04:54:38.651Z,1007.60
2019-05-07T04:55:38.635Z,1007.56
2019-05-07T04:56:39.189Z,1007.55
2019-05-07T04:57:38.608Z,1007.61
2019-05-07T04:58:38.560Z,1007.57
2019-05-07T04:59:38.848Z,1007.61
2019-05-07T05:00:43.186Z,1007.57
2019-05-07T05:01:38.548Z,1007.59
2019-05-07T05:02:38.612Z,1007.56
2019-05-07T05:03:39.436Z,1007.57
2019-05-07T05:04:38.534Z,1007.58
2019-05-07T05:05:38.753Z,1007.59
2019-05-07T05:06:42.267Z,1007.58
2019-05-07T05:07:38.475Z,1007.58
2019-05-07T05:08:38.509Z,1007.61
2019-05-07T05:09:42.437Z,1007.58
2019-05-07T05:10:38.730Z,1007.61
2019-05-07T05:11:43.642Z,1007.60
2019-05-07T05:12:38.560Z,1007.60
2019-05-07T05:13:38.425Z,1007.60
2019-05-07T05:14:38.413Z,1007.59
2019-05-07T05:15:38.385Z,1007.63
2019-05-07T05:16:38.399Z,1007.61
2019-05-07T05:17:50.445Z,1007.64
2019-05-07T05:18:39.389Z,1007.64
2019-05-07T05:19:39.124Z,1007.65
2019-05-07T05:20:38.565Z,1007.65
2019-05-07T05:21:38.511Z,1007.66
2019-05-07T05:22:39.258Z,1007.66
2019-05-07T05:23:38.407Z,1007.69
2019-05-07T05:24:42.553Z,1007.67
2019-05-07T05:25:39.694Z,1007.70
2019-05-07T05:26:41.804Z,1007.69
2019-05-07T05:27:38.258Z,1007.67
2019-05-07T05:28:38.258Z,1007.69
2019-05-07T05:29:38.261Z,1007.66
2019-05-07T05:30:38.257Z,1007.68
2019-05-07T05:31:38.341Z,1007.76
2019-05-07T05:32:38.888Z,1007.74
2019-05-07T05:33:38.515Z,1007.80
2019-05-07T05:34:38.178Z,1007.78
2019-05-07T05:35:38.191Z,1007.78
2019-05-07T05:36:38.206Z,1007.75
2019-05-07T05:37:38.429Z,1007.76
2019-05-07T05:38:38.408Z,1007.75
2019-05-07T05:39:38.126Z,1007.79
2019-05-07T05:40:38.523Z,1007.73
2019-05-07T05:41:39.095Z,1007.76
2019-05-07T05:42:38.152Z,1007.77
2019-05-07T05:43:38.531Z,1007.77
2019-05-07T05:44:38.093Z,1007.77
2019-05-07T05:45:38.919Z,1007.77
2019-05-07T05:46:38.920Z,1007.77
2019-05-07T05:47:38.043Z,1007.79
2019-05-07T05:48:38.067Z,1007.77
2019-05-07T05:49:38.076Z,1007.78
2019-05-07T05:50:38.036Z,1007.78
2019-05-07T05:51:38.016Z,1007.73
2019-05-07T05:52:37.991Z,1007.70
2019-05-07T05:53:38.729Z,1007.69
2019-05-07T05:54:38.123Z,1007.73
2019-05-07T05:55:37.958Z,1007.72
2019-05-07T05:56:37.957Z,1007.72
2019-05-07T05:57:37.923Z,1007.72
2019-05-07T05:58:37.932Z,1007.75
2019-05-07T05:59:49.269Z,1007.72
2019-05-07T06:00:38.979Z,1007.73
2019-05-07T06:01:38.371Z,1007.69
2019-05-07T06:02:37.885Z,1007.74
2019-05-07T06:03:37.893Z,1007.76
2019-05-07T06:04:37.964Z,1007.68
2019-05-07T06:05:38.502Z,1007.68
2019-05-07T06:06:37.991Z,1007.71
2019-05-07T06:07:37.970Z,1007.67
2019-05-07T06:08:38.175Z,1007.71
2019-05-07T06:09:37.904Z,1007.68
2019-05-07T06:10:38.392Z,1007.69
2019-05-07T06:11:37.788Z,1007.73
2019-05-07T06:12:37.957Z,1007.67
2019-05-07T06:13:38.398Z,1007.63
2019-05-07T06:14:37.754Z,1007.65
2019-05-07T06:15:37.755Z,1007.69
2019-05-07T06:16:37.770Z,1007.68
2019-05-07T06:17:37.800Z,1007.68
2019-05-07T06:18:37.764Z,1007.73
2019-05-07T06:19:37.709Z,1007.71
2019-05-07T06:20:37.719Z,1007.74
2019-05-07T06:21:37.734Z,1007.74
2019-05-07T06:22:37.737Z,1007.74
2019-05-07T06:23:37.711Z,1007.69
2019-05-07T06:24:37.680Z,1007.72
2019-05-07T06:25:37.628Z,1007.69
2019-05-07T06:26:37.651Z,1007.72
2019-05-07T06:27:37.662Z,1007.79
2019-05-07T06:28:42.547Z,1007.72
2019-05-07T06:29:37.599Z,1007.70
2019-05-07T06:30:37.657Z,1007.78
2019-05-07T06:31:37.595Z,1007.79
2019-05-07T06:32:37.590Z,1007.78
2019-05-07T06:33:37.883Z,1007.80
2019-05-07T06:34:37.529Z,1007.82
2019-05-07T06:35:37.606Z,1007.80
2019-05-07T06:36:37.572Z,1007.81
2019-05-07T06:37:37.524Z,1007.77
2019-05-07T06:38:37.508Z,1007.80
2019-05-07T06:39:37.478Z,1007.82
2019-05-07T06:40:38.033Z,1007.83
2019-05-07T06:41:37.585Z,1007.81
2019-05-07T06:42:37.521Z,1007.80
2019-05-07T06:43:37.463Z,1007.80
2019-05-07T06:44:37.467Z,1007.82
2019-05-07T06:45:37.447Z,1007.83
2019-05-07T06:46:38.807Z,1007.87
2019-05-07T06:47:37.981Z,1007.87
2019-05-07T06:48:42.689Z,1007.85
2019-05-07T06:49:38.411Z,1007.86
2019-05-07T06:50:37.734Z,1007.86
2019-05-07T06:51:37.397Z,1007.87
2019-05-07T06:52:53.498Z,1007.85
2019-05-07T06:53:42.104Z,1007.83
2019-05-07T06:54:37.408Z,1007.88
2019-05-07T06:55:38.235Z,1007.85
2019-05-07T06:56:37.332Z,1007.85
2019-05-07T06:57:37.319Z,1007.86
2019-05-07T06:58:37.331Z,1007.82
2019-05-07T06:59:37.309Z,1007.84
2019-05-07T07:00:37.323Z,1007.82
2019-05-07T07:01:42.176Z,1007.89
2019-05-07T07:02:37.318Z,1007.82
2019-05-07T07:03:37.247Z,1007.78
2019-05-07T07:04:37.265Z,1007.78
2019-05-07T07:05:37.571Z,1007.80
2019-05-07T07:06:37.737Z,1007.76
2019-05-07T07:07:37.719Z,1007.77
2019-05-07T07:08:37.250Z,1007.79
2019-05-07T07:09:37.158Z,1007.76
2019-05-07T07:10:37.164Z,1007.76
2019-05-07T07:11:37.168Z,1007.77
2019-05-07T07:12:37.177Z,1007.80
2019-05-07T07:13:37.162Z,1007.75
2019-05-07T07:14:37.131Z,1007.73
2019-05-07T07:15:37.179Z,1007.79
2019-05-07T07:16:37.105Z,1007.74
2019-05-07T07:17:37.861Z,1007.72
2019-05-07T07:18:48.346Z,1007.69
2019-05-07T07:19:38.054Z,1007.72
2019-05-07T07:20:37.099Z,1007.71
2019-05-07T07:21:37.069Z,1007.70
2019-05-07T07:22:37.052Z,1007.69
2019-05-07T07:23:37.440Z,1007.67
2019-05-07T07:24:37.050Z,1007.63
2019-05-07T07:25:37.011Z,1007.69
2019-05-07T07:26:37.006Z,1007.68
2019-05-07T07:27:37.029Z,1007.63
2019-05-07T07:28:36.986Z,1007.68
2019-05-07T07:29:36.981Z,1007.66
2019-05-07T07:30:37.027Z,1007.66
2019-05-07T07:31:37.683Z,1007.60
2019-05-07T07:32:36.944Z,1007.61
2019-05-07T07:33:36.920Z,1007.63
2019-05-07T07:34:36.921Z,1007.64
2019-05-07T07:35:36.885Z,1007.60
2019-05-07T07:36:36.956Z,1007.60
2019-05-07T07:37:36.920Z,1007.61
2019-05-07T07:38:36.870Z,1007.57
2019-05-07T07:39:36.870Z,1007.63
2019-05-07T07:40:36.861Z,1007.63
2019-05-07T07:41:36.847Z,1007.62
2019-05-07T07:42:36.861Z,1007.58
2019-05-07T07:43:36.829Z,1007.57
2019-05-07T07:44:36.821Z,1007.58
2019-05-07T07:45:36.798Z,1007.62
2019-05-07T07:46:36.828Z,1007.61
2019-05-07T07:47:36.789Z,1007.59
2019-05-07T07:48:36.803Z,1007.60
2019-05-07T07:49:36.766Z,1007.60
2019-05-07T07:50:36.782Z,1007.58
2019-05-07T07:51:41.753Z,1007.59
2019-05-07T07:52:37.739Z,1007.52
2019-05-07T07:53:36.731Z,1007.59
2019-05-07T07:54:36.758Z,1007.58
2019-05-07T07:55:36.689Z,1007.60
2019-05-07T07:56:49.069Z,1007.55
2019-05-07T07:57:37.685Z,1007.58
2019-05-07T07:58:36.660Z,1007.58
2019-05-07T07:59:36.776Z,1007.55
2019-05-07T08:00:36.718Z,1007.53
2019-05-07T08:01:36.668Z,1007.56
2019-05-07T08:02:36.672Z,1007.55
2019-05-07T08:03:36.692Z,1007.49
2019-05-07T08:04:36.603Z,1007.48
2019-05-07T08:05:36.616Z,1007.47
2019-05-07T08:06:36.630Z,1007.47
2019-05-07T08:07:36.578Z,1007.51
2019-05-07T08:08:36.561Z,1007.48
2019-05-07T08:09:36.561Z,1007.52
2019-05-07T08:10:36.561Z,1007.55
2019-05-07T08:11:36.555Z,1007.46
2019-05-07T08:12:36.560Z,1007.44
2019-05-07T08:13:36.571Z,1007.47
2019-05-07T08:14:36.524Z,1007.45
2019-05-07T08:15:36.502Z,1007.43
2019-05-07T08:16:36.494Z,1007.47
2019-05-07T08:17:36.468Z,1007.46
2019-05-07T08:18:36.799Z,1007.47
2019-05-07T08:19:36.482Z,1007.46
2019-05-07T08:20:36.464Z,1007.48
2019-05-07T08:21:36.506Z,1007.48
2019-05-07T08:22:37.184Z,1007.50
2019-05-07T08:23:36.414Z,1007.46
2019-05-07T08:24:36.423Z,1007.44
2019-05-07T08:25:36.383Z,1007.42
2019-05-07T08:26:37.203Z,1007.40
2019-05-07T08:27:36.380Z,1007.43
2019-05-07T08:28:36.711Z,1007.40
2019-05-07T08:29:36.900Z,1007.40
2019-05-07T08:30:36.364Z,1007.43
2019-05-07T08:31:36.337Z,1007.40
2019-05-07T08:32:36.320Z,1007.40
2019-05-07T08:33:36.328Z,1007.44
2019-05-07T08:34:36.321Z,1007.47
2019-05-07T08:35:36.548Z,1007.46
2019-05-07T08:36:36.315Z,1007.45
2019-05-07T08:37:36.268Z,1007.44
2019-05-07T08:38:36.397Z,1007.44
2019-05-07T08:39:36.234Z,1007.42
2019-05-07T08:40:36.244Z,1007.33
2019-05-07T08:41:36.999Z,1007.33
2019-05-07T08:42:36.246Z,1007.30
2019-05-07T08:43:36.188Z,1007.29
2019-05-07T08:44:36.219Z,1007.31
2019-05-07T08:45:36.270Z,1007.27
2019-05-07T08:46:36.169Z,1007.28
2019-05-07T08:47:36.547Z,1007.21
2019-05-07T08:48:36.198Z,1007.26
2019-05-07T08:49:39.932Z,1007.23
2019-05-07T08:50:37.178Z,1007.25
2019-05-07T08:51:36.162Z,1007.27
2019-05-07T08:52:36.134Z,1007.23
2019-05-07T08:53:37.080Z,1007.27
2019-05-07T08:54:36.143Z,1007.22
2019-05-07T08:55:36.084Z,1007.23
2019-05-07T08:56:36.112Z,1007.22
2019-05-07T08:57:36.079Z,1007.22
2019-05-07T08:58:36.054Z,1007.23
2019-05-07T08:59:36.581Z,1007.23
2019-05-07T09:00:36.105Z,1007.22
2019-05-07T09:01:36.015Z,1007.26
2019-05-07T09:02:36.028Z,1007.25
2019-05-07T09:03:36.015Z,1007.18
2019-05-07T09:04:36.012Z,1007.21
2019-05-07T09:05:36.000Z,1007.18
2019-05-07T09:06:36.644Z,1007.20
2019-05-07T09:07:36.859Z,1007.19
2019-05-07T09:08:35.954Z,1007.17
2019-05-07T09:09:35.974Z,1007.18
2019-05-07T09:10:36.634Z,1007.16
2019-05-07T09:11:35.921Z,1007.15
2019-05-07T09:12:37.745Z,1007.07
2019-05-07T09:13:36.566Z,1007.13
2019-05-07T09:14:35.898Z,1007.12
2019-05-07T09:15:35.911Z,1007.18
2019-05-07T09:16:35.885Z,1007.17
2019-05-07T09:17:35.846Z,1007.19
2019-05-07T09:18:35.880Z,1007.20
2019-05-07T09:19:47.295Z,1007.15
2019-05-07T09:20:36.908Z,1007.10
2019-05-07T09:21:35.815Z,1007.14
2019-05-07T09:22:35.791Z,1007.17
2019-05-07T09:23:35.811Z,1007.13
2019-05-07T09:24:36.587Z,1007.08
2019-05-07T09:25:35.857Z,1007.05
2019-05-07T09:26:35.927Z,1007.08
2019-05-07T09:27:35.782Z,1007.05
2019-05-07T09:28:35.733Z,1007.00
2019-05-07T09:29:35.723Z,1007.09
2019-05-07T09:30:35.773Z,1007.11
2019-05-07T09:31:35.724Z,1007.10
2019-05-07T09:32:35.692Z,1007.09
2019-05-07T09:33:35.663Z,1007.04
2019-05-07T09:34:35.672Z,1007.07
2019-05-07T09:35:35.691Z,1006.99
2019-05-07T09:36:36.122Z,1006.95
2019-05-07T09:37:35.721Z,1007.07
2019-05-07T09:38:35.634Z,1007.03
2019-05-07T09:39:35.643Z,1007.10
2019-05-07T09:40:35.606Z,1006.96
2019-05-07T09:41:35.619Z,1007.01
2019-05-07T09:42:36.325Z,1007.00
2019-05-07T09:43:35.596Z,1006.97
2019-05-07T09:44:35.583Z,1006.95
2019-05-07T09:45:35.744Z,1006.86
2019-05-07T09:46:35.531Z,1006.98
2019-05-07T09:47:35.553Z,1006.94
2019-05-07T09:48:35.767Z,1007.00
2019-05-07T09:49:35.558Z,1006.91
2019-05-07T09:50:36.068Z,1006.93
2019-05-07T09:51:35.506Z,1006.94
2019-05-07T09:52:36.023Z,1006.97
2019-05-07T09:53:35.648Z,1006.93
2019-05-07T09:54:35.531Z,1007.00
2019-05-07T09:55:35.521Z,1006.94
2019-05-07T09:56:35.434Z,1006.95
2019-05-07T09:57:35.427Z,1006.92
2019-05-07T09:58:42.769Z,1006.88
2019-05-07T09:59:35.597Z,1006.92
2019-05-07T10:00:35.445Z,1006.92
2019-05-07T10:01:37.264Z,1006.89
2019-05-07T10:02:35.388Z,1006.87
2019-05-07T10:03:35.362Z,1006.89
2019-05-07T10:04:36.138Z,1006.90
2019-05-07T10:05:35.454Z,1006.92
2019-05-07T10:06:35.468Z,1006.90
2019-05-07T10:07:35.308Z,1006.91
2019-05-07T10:08:35.328Z,1006.89
2019-05-07T10:09:35.308Z,1006.87
2019-05-07T10:10:35.293Z,1006.89
2019-05-07T10:11:36.248Z,1006.83
2019-05-07T10:12:35.442Z,1006.87
2019-05-07T10:13:35.690Z,1006.88
2019-05-07T10:14:35.263Z,1006.85
2019-05-07T10:15:35.252Z,1006.85
2019-05-07T10:16:35.237Z,1006.84
2019-05-07T10:17:35.310Z,1006.76
2019-05-07T10:18:35.249Z,1006.84
2019-05-07T10:19:37.360Z,1006.85
2019-05-07T10:20:35.211Z,1006.76
2019-05-07T10:21:36.515Z,1006.74
2019-05-07T10:22:35.264Z,1006.75
2019-05-07T10:23:35.875Z,1006.80
2019-05-07T10:24:35.918Z,1006.81
2019-05-07T10:25:35.709Z,1006.73
2019-05-07T10:26:35.142Z,1006.67
2019-05-07T10:27:35.144Z,1006.66
2019-05-07T10:28:35.155Z,1006.71
2019-05-07T10:29:35.231Z,1006.67
2019-05-07T10:30:35.125Z,1006.70
2019-05-07T10:31:35.870Z,1006.65
2019-05-07T10:32:35.101Z,1006.63
2019-05-07T10:33:35.079Z,1006.64
2019-05-07T10:34:35.036Z,1006.60
2019-05-07T10:35:35.041Z,1006.65
2019-05-07T10:36:35.158Z,1006.64
2019-05-07T10:37:35.454Z,1006.62
2019-05-07T10:38:35.000Z,1006.59
2019-05-07T10:39:35.100Z,1006.64
2019-05-07T10:40:35.002Z,1006.64
2019-05-07T10:41:35.686Z,1006.61
2019-05-07T10:42:35.039Z,1006.55
2019-05-07T10:43:35.039Z,1006.57
2019-05-07T10:44:34.946Z,1006.52
2019-05-07T10:45:36.650Z,1006.63
2019-05-07T10:46:36.101Z,1006.60
2019-05-07T10:47:36.466Z,1006.63
2019-05-07T10:48:35.280Z,1006.63
2019-05-07T10:49:35.035Z,1006.58
2019-05-07T10:50:38.951Z,1006.56
2019-05-07T10:51:34.902Z,1006.58
2019-05-07T10:52:34.870Z,1006.56
2019-05-07T10:53:35.002Z,1006.54
2019-05-07T10:54:34.892Z,1006.55
2019-05-07T10:55:34.821Z,1006.55
2019-05-07T10:56:34.816Z,1006.58
2019-05-07T10:57:34.839Z,1006.59
2019-05-07T10:58:34.809Z,1006.56
2019-05-07T10:59:34.820Z,1006.59
2019-05-07T11:00:36.852Z,1006.60
2019-05-07T11:01:34.757Z,1006.59
2019-05-07T11:02:35.163Z,1006.61
2019-05-07T11:03:34.752Z,1006.57
2019-05-07T11:04:42.123Z,1006.56
2019-05-07T11:05:35.847Z,1006.65
2019-05-07T11:06:34.718Z,1006.60
2019-05-07T11:07:34.847Z,1006.54
2019-05-07T11:08:34.732Z,1006.52
2019-05-07T11:09:35.078Z,1006.57
2019-05-07T11:10:34.693Z,1006.58
2019-05-07T11:11:34.785Z,1006.53
2019-05-07T11:12:34.693Z,1006.54
2019-05-07T11:13:34.721Z,1006.53
2019-05-07T11:14:34.909Z,1006.55
2019-05-07T11:15:36.544Z,1006.49
2019-05-07T11:16:34.693Z,1006.51
2019-05-07T11:17:34.789Z,1006.52
2019-05-07T11:18:34.638Z,1006.51
2019-05-07T11:19:34.684Z,1006.49
2019-05-07T11:20:46.586Z,1006.47
2019-05-07T11:21:35.597Z,1006.43
2019-05-07T11:22:34.556Z,1006.47
2019-05-07T11:23:35.568Z,1006.42
2019-05-07T11:24:34.567Z,1006.44
2019-05-07T11:25:34.570Z,1006.41
2019-05-07T11:26:34.532Z,1006.41
2019-05-07T11:27:34.604Z,1006.35
2019-05-07T11:28:34.637Z,1006.37
2019-05-07T11:29:36.592Z,1006.40
2019-05-07T11:30:35.114Z,1006.34
2019-05-07T11:31:34.565Z,1006.34
2019-05-07T11:32:34.488Z,1006.32
2019-05-07T11:33:34.577Z,1006.31
2019-05-07T11:34:34.429Z,1006.30
2019-05-07T11:35:34.936Z,1006.26
2019-05-07T11:36:35.160Z,1006.24
2019-05-07T11:37:34.600Z,1006.21
2019-05-07T11:38:34.373Z,1006.22
2019-05-07T11:39:34.385Z,1006.21
2019-05-07T11:40:35.679Z,1006.17
2019-05-07T11:41:35.825Z,1006.15
2019-05-07T11:42:34.370Z,1006.17
2019-05-07T11:43:34.331Z,1006.15
2019-05-07T11:44:34.366Z,1006.19
2019-05-07T11:45:35.485Z,1006.17
2019-05-07T11:46:34.317Z,1006.14
2019-05-07T11:47:34.345Z,1006.13
2019-05-07T11:48:36.419Z,1006.13
2019-05-07T11:49:35.882Z,1006.12
2019-05-07T11:50:34.504Z,1006.10
2019-05-07T11:51:34.272Z,1006.10
2019-05-07T11:52:35.899Z,1006.21
2019-05-07T11:53:35.261Z,1006.10
2019-05-07T11:54:36.062Z,1006.14
2019-05-07T11:55:34.755Z,1006.17
2019-05-07T11:56:34.370Z,1006.05
2019-05-07T11:57:34.235Z,1006.04
2019-05-07T11:58:34.246Z,1006.09
2019-05-07T11:59:34.267Z,1006.11
2019-05-07T12:00:34.774Z,1006.04
2019-05-07T12:01:43.469Z,1006.06
2019-05-07T12:02:35.166Z,1006.10
2019-05-07T12:03:34.234Z,1006.03
2019-05-07T12:04:34.160Z,1005.98
2019-05-07T12:05:34.624Z,1005.99
2019-05-07T12:06:34.117Z,1005.98